createdAt,value
2023-05-01T00:01:00.872Z,99.90
2023-05-01T00:03:28.469Z,99.90
2023-05-01T00:06:04.419Z,99.90
2023-05-01T00:08:32.998Z,99.90
2023-05-01T00:11:04.446Z,99.90
2023-05-01T00:13:32.253Z,99.90
2023-05-01T00:15:59.627Z,99.90
2023-05-01T00:18:26.987Z,99.90
2023-05-01T00:20:54.275Z,99.90
2023-05-01T00:23:21.573Z,99.90
2023-05-01T00:25:49.668Z,99.90
2023-05-01T00:28:19.157Z,99.90
2023-05-01T00:30:47.311Z,99.90
2023-05-01T00:33:14.838Z,99.90
2023-05-01T00:35:45.268Z,99.90
2023-05-01T00:38:12.952Z,99.90
2023-05-01T00:40:47.356Z,99.90
2023-05-01T00:43:14.708Z,99.90
2023-05-01T00:45:46.222Z,99.90
2023-05-01T00:48:15.411Z,99.90
2023-05-01T00:50:44.967Z,99.90
2023-05-01T00:53:12.721Z,99.90
2023-05-01T00:55:42.931Z,99.90
2023-05-01T00:58:12.260Z,99.90
2023-05-01T01:00:39.752Z,99.90
2023-05-01T01:03:07.730Z,99.90
2023-05-01T01:05:45.413Z,99.90
2023-05-01T01:08:20.107Z,99.90
2023-05-01T01:11:04.369Z,99.90
2023-05-01T01:13:58.353Z,99.90
2023-05-01T01:16:34.628Z,99.90
2023-05-01T01:19:31.059Z,99.90
2023-05-01T01:22:05.758Z,99.90
2023-05-01T01:25:23.570Z,99.90
2023-05-01T01:28:35.468Z,99.90
2023-05-01T01:31:12.543Z,99.90
2023-05-01T01:34:04.945Z,99.90
2023-05-01T01:36:43.758Z,99.90
2023-05-01T01:39:14.135Z,99.90
2023-05-01T01:41:49.470Z,99.90
2023-05-01T01:44:27.849Z,99.90
2023-05-01T01:46:55.208Z,99.90
2023-05-01T01:49:26.954Z,99.90
2023-05-01T01:51:56.091Z,99.90
2023-05-01T01:54:47.350Z,99.90
2023-05-01T01:57:18.890Z,99.90
2023-05-01T01:59:50.078Z,99.90
2023-05-01T02:02:20.856Z,99.90
2023-05-01T02:04:50.461Z,99.90
2023-05-01T02:07:19.167Z,99.90
2023-05-01T02:09:48.429Z,99.90
2023-05-01T02:12:17.769Z,99.90
2023-05-01T02:14:46.153Z,99.90
2023-05-01T02:17:15.819Z,99.90
2023-05-01T02:19:45.230Z,99.90
2023-05-01T02:22:13.836Z,99.90
2023-05-01T02:24:44.435Z,99.90
2023-05-01T02:27:26.697Z,99.90
2023-05-01T02:29:54.515Z,99.90
2023-05-01T02:32:22.781Z,99.90
2023-05-01T02:34:50.504Z,99.90
2023-05-01T02:37:18.257Z,99.90
2023-05-01T02:39:46.729Z,99.90
2023-05-01T02:42:17.309Z,99.90
2023-05-01T02:45:01.812Z,99.90
2023-05-01T02:47:35.136Z,99.90
2023-05-01T02:50:03.303Z,99.90
2023-05-01T02:52:31.816Z,99.90
2023-05-01T02:55:18.530Z,99.90
2023-05-01T02:57:46.879Z,99.90
2023-05-01T03:00:14.528Z,99.90
2023-05-01T03:02:42.688Z,99.90
2023-05-01T03:05:10.062Z,99.90
2023-05-01T03:07:37.439Z,99.90
2023-05-01T03:10:05.962Z,99.90
2023-05-01T03:12:33.590Z,99.90
2023-05-01T03:15:00.921Z,99.90
2023-05-01T03:17:28.308Z,99.90
2023-05-01T03:19:56.562Z,99.90
2023-05-01T03:22:24.445Z,99.90
2023-05-01T03:24:52.312Z,99.90
2023-05-01T03:27:19.970Z,99.90
2023-05-01T03:29:47.541Z,99.90
2023-05-01T03:32:16.891Z,99.90
2023-05-01T03:34:45.908Z,99.90
2023-05-01T03:37:13.943Z,99.90
2023-05-01T03:39:41.676Z,99.90
2023-05-01T03:42:27.766Z,99.90
2023-05-01T03:45:01.564Z,99.90
2023-05-01T03:47:29.951Z,99.90
2023-05-01T03:49:57.675Z,99.90
2023-05-01T03:52:25.399Z,99.90
2023-05-01T03:54:53.407Z,99.90
2023-05-01T03:57:23.717Z,99.90
2023-05-01T03:59:51.231Z,99.90
2023-05-01T04:02:19.972Z,99.90
2023-05-01T04:04:47.365Z,99.90
2023-05-01T04:07:15.380Z,99.90
2023-05-01T04:09:44.130Z,99.90
2023-05-01T04:12:11.547Z,99.90
2023-05-01T04:14:38.960Z,99.90
2023-05-01T04:17:06.502Z,99.90
2023-05-01T04:19:36.698Z,99.90
2023-05-01T04:22:07.979Z,99.90
2023-05-01T04:24:36.738Z,99.90
2023-05-01T04:27:05.922Z,99.90
2023-05-01T04:29:33.261Z,99.90
2023-05-01T04:32:00.739Z,99.90
2023-05-01T04:34:29.624Z,99.90
2023-05-01T04:37:00.144Z,99.90
2023-05-01T04:39:28.434Z,99.90
2023-05-01T04:41:57.282Z,99.90
2023-05-01T04:44:25.386Z,99.90
2023-05-01T04:46:53.278Z,99.90
2023-05-01T04:49:22.211Z,99.90
2023-05-01T04:51:49.600Z,99.90
2023-05-01T04:54:19.657Z,99.90
2023-05-01T04:56:47.543Z,99.90
2023-05-01T04:59:14.914Z,99.90
2023-05-01T05:01:42.195Z,99.90
2023-05-01T05:04:09.624Z,99.90
2023-05-01T05:06:37.213Z,99.90
2023-05-01T05:09:07.864Z,99.90
2023-05-01T05:11:35.595Z,99.90
2023-05-01T05:14:10.718Z,99.90
2023-05-01T05:16:38.250Z,99.90
2023-05-01T05:19:05.980Z,99.90
2023-05-01T05:21:37.509Z,99.90
2023-05-01T05:24:05.044Z,99.90
2023-05-01T05:26:32.987Z,99.90
2023-05-01T05:29:03.105Z,99.90
2023-05-01T05:31:30.870Z,99.90
2023-05-01T05:33:58.250Z,99.90
2023-05-01T05:36:27.779Z,99.90
2023-05-01T05:38:55.407Z,99.90
2023-05-01T05:41:23.039Z,99.90
2023-05-01T05:43:54.537Z,99.90
2023-05-01T05:46:21.856Z,99.90
2023-05-01T05:48:49.361Z,99.90
2023-05-01T05:51:17.275Z,99.90
2023-05-01T05:53:44.595Z,99.90
2023-05-01T05:56:12.131Z,99.90
2023-05-01T05:58:39.554Z,99.90
2023-05-01T06:01:09.505Z,99.90
2023-05-01T06:03:38.615Z,99.90
2023-05-01T06:06:06.516Z,99.90
2023-05-01T06:08:35.645Z,99.90
2023-05-01T06:11:05.049Z,99.90
2023-05-01T06:13:33.032Z,99.90
2023-05-01T06:16:00.887Z,99.90
2023-05-01T06:18:30.646Z,99.90
2023-05-01T06:20:58.804Z,99.90
2023-05-01T06:23:27.154Z,99.90
2023-05-01T06:26:21.806Z,99.90
2023-05-01T06:28:49.229Z,99.90
2023-05-01T06:31:16.704Z,99.90
2023-05-01T06:33:49.857Z,99.90
2023-05-01T06:36:24.576Z,99.90
2023-05-01T06:38:51.867Z,99.90
2023-05-01T06:41:20.031Z,99.90
2023-05-01T06:43:47.921Z,99.90
2023-05-01T06:46:17.393Z,99.90
2023-05-01T06:48:44.807Z,99.90
2023-05-01T06:51:17.164Z,99.90
2023-05-01T06:53:46.382Z,99.90
2023-05-01T06:56:13.672Z,99.90
2023-05-01T06:58:41.138Z,99.90
2023-05-01T07:01:08.749Z,99.90
2023-05-01T07:03:36.138Z,99.90
2023-05-01T07:06:03.793Z,99.90
2023-05-01T07:08:31.781Z,99.90
2023-05-01T07:10:59.280Z,99.90
2023-05-01T07:13:26.804Z,99.90
2023-05-01T07:15:54.778Z,99.90
2023-05-01T07:18:22.624Z,99.90
2023-05-01T07:20:50.617Z,99.90
2023-05-01T07:23:17.902Z,99.90
2023-05-01T07:25:46.122Z,99.90
2023-05-01T07:28:13.578Z,99.90
2023-05-01T07:30:40.986Z,99.90
2023-05-01T07:33:08.382Z,99.90
2023-05-01T07:35:36.263Z,99.90
2023-05-01T07:38:03.733Z,99.90
2023-05-01T07:40:35.047Z,99.90
2023-05-01T07:43:02.664Z,99.90
2023-05-01T07:45:30.288Z,99.90
2023-05-01T07:47:57.785Z,99.90
2023-05-01T07:50:26.187Z,99.90
2023-05-01T07:52:53.946Z,99.90
2023-05-01T07:55:22.874Z,99.90
2023-05-01T07:57:50.601Z,99.90
2023-05-01T08:00:18.373Z,99.90
2023-05-01T08:02:45.822Z,99.90
2023-05-01T08:05:13.275Z,99.90
2023-05-01T08:07:40.615Z,99.90
2023-05-01T08:10:08.522Z,99.90
2023-05-01T08:12:35.934Z,99.90
2023-05-01T08:15:03.288Z,99.90
2023-05-01T08:17:31.172Z,99.90
2023-05-01T08:20:00.969Z,99.90
2023-05-01T08:22:28.598Z,99.90
2023-05-01T08:24:56.492Z,99.90
2023-05-01T08:27:24.093Z,99.90
2023-05-01T08:29:51.512Z,99.90
2023-05-01T08:32:19.267Z,99.90
2023-05-01T08:34:46.679Z,99.90
2023-05-01T08:37:13.994Z,99.90
2023-05-01T08:39:41.342Z,99.90
2023-05-01T08:42:08.827Z,99.90
2023-05-01T08:44:39.839Z,99.60
2023-05-01T08:47:18.137Z,99.90
2023-05-01T08:49:47.285Z,99.10
2023-05-01T08:52:15.703Z,99.10
2023-05-01T08:54:44.889Z,99.10
2023-05-01T08:57:13.004Z,98.70
2023-05-01T08:59:41.243Z,98.70
2023-05-01T09:02:11.271Z,98.40
2023-05-01T09:04:40.701Z,98.30
2023-05-01T09:07:09.623Z,98.60
2023-05-01T09:09:38.527Z,97.40
2023-05-01T09:12:24.082Z,97.60
2023-05-01T09:14:53.757Z,97.30
2023-05-01T09:17:22.956Z,97.40
2023-05-01T09:19:51.496Z,97.20
2023-05-01T09:22:19.743Z,97.10
2023-05-01T09:24:47.129Z,96.80
2023-05-01T09:27:16.579Z,96.50
2023-05-01T09:29:48.492Z,96.80
2023-05-01T09:32:26.038Z,96.90
2023-05-01T09:34:53.840Z,96.50
2023-05-01T09:37:32.438Z,96.30
2023-05-01T09:40:10.224Z,96.60
2023-05-01T09:42:49.873Z,96.80
2023-05-01T09:45:18.947Z,96.80
2023-05-01T09:47:47.523Z,97.20
2023-05-01T09:50:32.540Z,97.00
2023-05-01T09:53:02.847Z,96.70
2023-05-01T09:55:30.354Z,96.20
2023-05-01T09:57:59.341Z,96.30
2023-05-01T10:00:27.669Z,96.30
2023-05-01T10:02:55.437Z,96.20
2023-05-01T10:05:23.601Z,96.20
2023-05-01T10:08:02.589Z,96.20
2023-05-01T10:10:30.138Z,95.90
2023-05-01T10:13:22.072Z,95.90
2023-05-01T10:15:50.585Z,96.70
2023-05-01T10:18:18.905Z,96.70
2023-05-01T10:20:47.443Z,96.80
2023-05-01T10:23:14.913Z,97.10
2023-05-01T10:25:43.188Z,97.50
2023-05-01T10:28:11.902Z,97.70
2023-05-01T10:30:41.516Z,98.00
2023-05-01T10:33:09.257Z,99.20
2023-05-01T10:35:40.686Z,99.90
2023-05-01T10:38:35.447Z,99.90
2023-05-01T10:41:03.169Z,99.90
2023-05-01T10:43:31.580Z,99.90
2023-05-01T10:46:08.202Z,99.90
2023-05-01T10:48:38.399Z,99.90
2023-05-01T10:51:16.990Z,99.90
2023-05-01T10:53:45.878Z,99.90
2023-05-01T10:56:24.348Z,99.90
2023-05-01T10:58:56.105Z,99.90
2023-05-01T11:01:37.052Z,99.90
2023-05-01T11:04:23.706Z,99.90
2023-05-01T11:07:08.364Z,99.90
2023-05-01T11:09:54.458Z,99.90
2023-05-01T11:12:46.666Z,99.90
2023-05-01T11:15:25.922Z,99.90
2023-05-01T11:17:53.342Z,99.90
2023-05-01T11:20:48.497Z,99.90
2023-05-01T11:23:19.734Z,99.90
2023-05-01T11:25:48.294Z,99.90
2023-05-01T11:28:19.564Z,99.90
2023-05-01T11:30:47.038Z,99.90
2023-05-01T11:33:14.543Z,99.90
2023-05-01T11:35:42.241Z,99.90
2023-05-01T11:38:18.971Z,99.90
2023-05-01T11:40:54.136Z,99.90
2023-05-01T11:43:22.289Z,99.90
2023-05-01T11:45:55.620Z,99.90
2023-05-01T11:48:23.061Z,99.90
2023-05-01T11:50:50.844Z,99.90
2023-05-01T11:53:18.964Z,99.90
2023-05-01T11:55:46.678Z,99.90
2023-05-01T11:58:14.262Z,99.90
2023-05-01T12:00:44.138Z,99.90
2023-05-01T12:03:13.399Z,99.90
2023-05-01T12:05:43.378Z,99.90
2023-05-01T12:08:18.956Z,99.90
2023-05-01T12:10:49.575Z,99.90
2023-05-01T12:13:17.652Z,99.90
2023-05-01T12:15:55.910Z,99.90
2023-05-01T12:18:24.060Z,99.90
2023-05-01T12:20:55.874Z,99.90
2023-05-01T12:23:33.642Z,99.90
2023-05-01T12:26:03.125Z,99.90
2023-05-01T12:28:31.268Z,99.90
2023-05-01T12:31:05.284Z,99.90
2023-05-01T12:33:33.495Z,99.90
2023-05-01T12:36:11.744Z,99.90
2023-05-01T12:38:39.434Z,99.90
2023-05-01T12:41:08.987Z,99.90
2023-05-01T12:43:38.267Z,99.90
2023-05-01T12:46:13.884Z,99.90
2023-05-01T12:48:41.555Z,99.90
2023-05-01T12:51:09.059Z,99.90
2023-05-01T12:53:44.609Z,99.90
2023-05-01T12:56:24.561Z,99.90
2023-05-01T12:58:53.900Z,99.90
2023-05-01T13:01:28.619Z,99.90
2023-05-01T13:03:58.210Z,99.90
2023-05-01T13:06:34.026Z,99.90
2023-05-01T13:09:10.797Z,99.90
2023-05-01T13:11:38.659Z,99.90
2023-05-01T13:14:10.099Z,99.90
2023-05-01T13:16:46.996Z,99.90
2023-05-01T13:19:14.740Z,99.90
2023-05-01T13:21:49.482Z,99.90
2023-05-01T13:24:17.047Z,99.90
2023-05-01T13:26:45.361Z,99.90
2023-05-01T13:29:16.510Z,99.90
2023-05-01T13:31:45.081Z,99.90
2023-05-01T13:34:17.881Z,99.90
2023-05-01T13:36:46.320Z,99.90
2023-05-01T13:39:21.405Z,99.90
2023-05-01T13:41:49.902Z,99.90
2023-05-01T13:44:17.985Z,99.90
2023-05-01T13:46:46.711Z,99.90
2023-05-01T13:49:22.446Z,99.90
2023-05-01T13:51:50.059Z,99.90
2023-05-01T13:54:18.531Z,99.90
2023-05-01T13:56:46.836Z,99.90
2023-05-01T13:59:16.227Z,99.90
2023-05-01T14:01:46.725Z,99.90
2023-05-01T14:04:18.658Z,99.90
2023-05-01T14:06:48.879Z,99.90
2023-05-01T14:09:19.669Z,99.90
2023-05-01T14:11:51.079Z,99.90
2023-05-01T14:14:19.892Z,99.90
2023-05-01T14:16:49.033Z,99.90
2023-05-01T14:19:18.521Z,99.90
2023-05-01T14:21:47.184Z,99.90
2023-05-01T14:24:18.327Z,99.90
2023-05-01T14:26:49.751Z,99.90
2023-05-01T14:29:26.935Z,99.90
2023-05-01T14:31:55.691Z,99.90
2023-05-01T14:34:24.500Z,99.90
2023-05-01T14:36:52.079Z,99.90
2023-05-01T14:39:19.665Z,99.90
2023-05-01T14:41:47.981Z,99.90
2023-05-01T14:44:26.823Z,99.90
2023-05-01T14:46:54.717Z,99.90
2023-05-01T14:49:27.224Z,99.90
2023-05-01T14:51:54.843Z,99.90
2023-05-01T14:54:22.263Z,99.90
2023-05-01T14:56:49.615Z,99.90
2023-05-01T14:59:17.383Z,99.90
2023-05-01T15:01:44.702Z,99.90
2023-05-01T15:04:13.472Z,99.90
2023-05-01T15:06:42.674Z,99.90
2023-05-01T15:09:10.477Z,99.90
2023-05-01T15:11:38.198Z,99.90
2023-05-01T15:14:06.121Z,99.90
2023-05-01T15:16:34.539Z,99.90
2023-05-01T15:19:01.916Z,99.90
2023-05-01T15:21:29.208Z,99.90
2023-05-01T15:23:56.568Z,99.90
2023-05-01T15:26:24.258Z,99.90
2023-05-01T15:28:51.635Z,99.90
2023-05-01T15:31:19.733Z,99.90
2023-05-01T15:33:47.091Z,99.90
2023-05-01T15:36:14.470Z,99.90
2023-05-01T15:38:41.763Z,99.90
2023-05-01T15:41:09.150Z,99.90
2023-05-01T15:43:36.741Z,99.90
2023-05-01T15:46:06.125Z,99.90
2023-05-01T15:48:33.920Z,99.90
2023-05-01T15:51:01.616Z,99.90
2023-05-01T15:53:28.880Z,99.90
2023-05-01T15:55:59.318Z,99.90
2023-05-01T15:58:26.579Z,99.90
2023-05-01T16:00:53.960Z,99.90
2023-05-01T16:03:21.373Z,99.90
2023-05-01T16:05:48.726Z,99.90
2023-05-01T16:08:18.340Z,99.90
2023-05-01T16:10:45.852Z,99.90
2023-05-01T16:13:14.133Z,99.90
2023-05-01T16:15:41.382Z,99.90
2023-05-01T16:18:09.833Z,99.90
2023-05-01T16:20:43.205Z,99.90
2023-05-01T16:23:11.761Z,99.90
2023-05-01T16:25:43.232Z,99.90
2023-05-01T16:28:11.648Z,99.90
2023-05-01T16:30:43.334Z,99.90
2023-05-01T16:33:18.824Z,99.90
2023-05-01T16:35:50.179Z,99.90
2023-05-01T16:38:18.664Z,99.90
2023-05-01T16:40:48.213Z,99.90
2023-05-01T16:43:15.703Z,99.90
2023-05-01T16:45:42.971Z,99.90
2023-05-01T16:48:10.615Z,99.90
2023-05-01T16:50:41.708Z,99.90
2023-05-01T16:53:09.160Z,99.90
2023-05-01T16:55:36.409Z,99.90
2023-05-01T16:58:03.737Z,99.90
2023-05-01T17:00:31.571Z,99.90
2023-05-01T17:02:59.209Z,99.90
2023-05-01T17:05:26.860Z,99.90
2023-05-01T17:07:55.503Z,99.90
2023-05-01T17:10:22.982Z,99.90
2023-05-01T17:12:50.188Z,99.90
2023-05-01T17:15:18.340Z,99.90
2023-05-01T17:17:45.832Z,99.90
2023-05-01T17:20:14.090Z,99.90
2023-05-01T17:22:42.076Z,99.90
2023-05-01T17:25:10.669Z,99.90
2023-05-01T17:27:38.377Z,99.90
2023-05-01T17:30:06.567Z,99.90
2023-05-01T17:32:37.316Z,99.90
2023-05-01T17:35:06.043Z,99.90
2023-05-01T17:37:33.593Z,99.90
2023-05-01T17:40:01.483Z,99.90
2023-05-01T17:42:29.486Z,99.90
2023-05-01T17:44:57.070Z,99.90
2023-05-01T17:47:26.000Z,99.90
2023-05-01T17:49:54.713Z,99.90
2023-05-01T17:52:22.091Z,99.90
2023-05-01T17:54:49.470Z,99.90
2023-05-01T17:57:16.878Z,99.90
2023-05-01T17:59:44.926Z,99.90
2023-05-01T18:02:12.381Z,99.90
2023-05-01T18:04:39.742Z,99.90
2023-05-01T18:07:07.762Z,99.90
2023-05-01T18:09:35.082Z,99.90
2023-05-01T18:12:02.580Z,99.90
2023-05-01T18:14:30.277Z,99.90
2023-05-01T18:16:57.635Z,99.90
2023-05-01T18:19:25.053Z,99.90
2023-05-01T18:21:52.464Z,99.90
2023-05-01T18:24:19.929Z,99.90
2023-05-01T18:26:47.210Z,99.90
2023-05-01T18:29:14.486Z,99.90
2023-05-01T18:31:41.837Z,99.90
2023-05-01T18:34:10.690Z,99.90
2023-05-01T18:36:38.055Z,99.90
2023-05-01T18:39:05.643Z,99.90
2023-05-01T18:41:32.974Z,99.90
2023-05-01T18:44:03.874Z,99.90
2023-05-01T18:46:31.292Z,99.90
2023-05-01T18:48:59.923Z,99.90
2023-05-01T18:51:27.324Z,99.90
2023-05-01T18:53:54.961Z,99.90
2023-05-01T18:56:24.632Z,99.90
2023-05-01T18:58:51.968Z,99.90
2023-05-01T19:01:19.391Z,99.90
2023-05-01T19:03:47.356Z,99.90
2023-05-01T19:06:14.731Z,99.90
2023-05-01T19:08:42.134Z,99.90
2023-05-01T19:11:09.559Z,99.90
2023-05-01T19:13:37.192Z,99.90
2023-05-01T19:16:05.193Z,99.90
2023-05-01T19:18:33.744Z,99.90
2023-05-01T19:21:01.137Z,99.90
2023-05-01T19:23:30.761Z,99.90
2023-05-01T19:25:58.199Z,99.90
2023-05-01T19:28:25.737Z,99.90
2023-05-01T19:30:53.404Z,99.90
2023-05-01T19:33:20.720Z,99.90
2023-05-01T19:35:48.356Z,99.90
2023-05-01T19:38:15.817Z,99.90
2023-05-01T19:40:45.098Z,99.90
2023-05-01T19:43:13.572Z,99.90
2023-05-01T19:45:40.913Z,99.90
2023-05-01T19:48:08.506Z,99.90
2023-05-01T19:50:36.183Z,99.90
2023-05-01T19:53:05.274Z,99.90
2023-05-01T19:55:32.591Z,99.90
2023-05-01T19:58:00.280Z,99.90
2023-05-01T20:00:28.180Z,99.90
2023-05-01T20:02:55.576Z,99.90
2023-05-01T20:05:28.519Z,99.90
2023-05-01T20:07:57.309Z,99.90
2023-05-01T20:10:25.472Z,99.90
2023-05-01T20:12:52.938Z,99.90
2023-05-01T20:15:20.389Z,99.90
2023-05-01T20:17:50.566Z,99.90
2023-05-01T20:20:22.095Z,99.90
2023-05-01T20:22:52.973Z,99.90
2023-05-01T20:25:20.313Z,99.90
2023-05-01T20:27:47.634Z,99.90
2023-05-01T20:30:15.002Z,99.90
2023-05-01T20:32:44.596Z,99.90
2023-05-01T20:35:11.957Z,99.90
2023-05-01T20:37:39.544Z,99.90
2023-05-01T20:40:07.928Z,99.90
2023-05-01T20:42:35.254Z,99.90
2023-05-01T20:45:02.942Z,99.90
2023-05-01T20:47:31.365Z,99.90
2023-05-01T20:49:58.888Z,99.90
2023-05-01T20:52:28.044Z,99.90
2023-05-01T20:54:55.544Z,99.90
2023-05-01T20:57:22.891Z,99.90
2023-05-01T20:59:51.014Z,99.90
2023-05-01T21:02:18.368Z,99.90
2023-05-01T21:04:46.514Z,99.90
2023-05-01T21:07:14.007Z,99.90
2023-05-01T21:09:47.918Z,99.90
2023-05-01T21:12:15.270Z,99.90
2023-05-01T21:14:42.622Z,99.90
2023-05-01T21:17:10.227Z,99.90
2023-05-01T21:19:45.690Z,99.90
2023-05-01T21:22:22.233Z,99.90
2023-05-01T21:24:54.604Z,99.90
2023-05-01T21:27:24.376Z,99.90
2023-05-01T21:29:54.997Z,99.90
2023-05-01T21:32:33.581Z,99.90
2023-05-01T21:35:02.033Z,99.90
2023-05-01T21:37:29.513Z,99.90
2023-05-01T21:40:05.223Z,99.90
2023-05-01T21:42:37.908Z,99.90
2023-05-01T21:45:10.686Z,99.90
2023-05-01T21:47:49.229Z,99.90
2023-05-01T21:50:19.375Z,99.90
2023-05-01T21:52:48.995Z,99.90
2023-05-01T21:55:22.093Z,99.90
2023-05-01T21:57:53.378Z,99.90
2023-05-01T22:00:21.598Z,99.90
2023-05-01T22:02:50.530Z,99.90
2023-05-01T22:05:22.926Z,99.90
2023-05-01T22:07:54.238Z,99.90
2023-05-01T22:10:21.761Z,99.90
2023-05-01T22:12:49.543Z,99.90
2023-05-01T22:15:17.314Z,99.90
2023-05-01T22:17:45.482Z,99.90
2023-05-01T22:20:12.893Z,99.90
2023-05-01T22:22:41.690Z,99.90
2023-05-01T22:25:10.615Z,99.90
2023-05-01T22:27:38.487Z,99.90
2023-05-01T22:30:06.609Z,99.90
2023-05-01T22:32:34.437Z,99.90
2023-05-01T22:35:01.913Z,99.90
2023-05-01T22:37:30.113Z,99.90
2023-05-01T22:39:57.798Z,99.90
2023-05-01T22:42:25.381Z,99.90
2023-05-01T22:44:52.714Z,99.90
2023-05-01T22:47:19.889Z,99.90
2023-05-01T22:49:47.286Z,99.90
2023-05-01T22:52:14.664Z,99.90
2023-05-01T22:54:42.100Z,99.90
2023-05-01T22:57:10.476Z,99.90
2023-05-01T22:59:39.998Z,99.90
2023-05-01T23:02:07.445Z,99.90
2023-05-01T23:04:34.846Z,99.90
2023-05-01T23:07:02.187Z,99.90
2023-05-01T23:09:32.299Z,99.90
2023-05-01T23:11:59.727Z,99.90
2023-05-01T23:14:27.021Z,99.90
2023-05-01T23:16:54.380Z,99.90
2023-05-01T23:19:23.927Z,99.90
2023-05-01T23:22:08.875Z,99.90
2023-05-01T23:24:50.771Z,99.90
2023-05-01T23:27:19.432Z,99.90
2023-05-01T23:29:58.825Z,99.90
2023-05-01T23:32:32.881Z,99.90
2023-05-01T23:35:16.801Z,99.90
2023-05-01T23:37:44.045Z,99.90
2023-05-01T23:40:11.689Z,99.90
2023-05-01T23:42:39.960Z,99.90
2023-05-01T23:45:08.389Z,99.90
2023-05-01T23:47:36.927Z,99.90
2023-05-01T23:50:04.613Z,99.90
2023-05-01T23:52:32.440Z,99.90
2023-05-01T23:54:59.769Z,99.90
2023-05-01T23:57:27.278Z,99.90
2023-05-01T23:59:54.583Z,99.90
